createdAt,value
2018-03-24T00:00:06.725Z,81.31
2018-03-24T00:02:36.016Z,81.07
2018-03-24T00:05:05.483Z,81.43
2018-03-24T00:07:35.594Z,81.51
2018-03-24T00:10:05.891Z,82.43
2018-03-24T00:12:35.859Z,82.58
2018-03-24T00:15:05.365Z,83.16
2018-03-24T00:17:34.551Z,85.10
2018-03-24T00:20:04.017Z,86.20
2018-03-24T00:22:33.217Z,86.34
2018-03-24T00:25:02.437Z,85.43
2018-03-24T00:27:31.663Z,83.07
2018-03-24T00:30:00.853Z,82.24
2018-03-24T00:32:30.449Z,81.89
2018-03-24T00:34:59.580Z,81.46
2018-03-24T00:37:29.273Z,81.18
2018-03-24T00:39:58.513Z,81.05
2018-03-24T00:42:27.893Z,80.98
2018-03-24T00:44:57.356Z,80.76
2018-03-24T00:47:26.868Z,81.00
2018-03-24T00:49:56.193Z,80.41
2018-03-24T00:52:25.402Z,80.81
2018-03-24T00:54:54.633Z,81.20
2018-03-24T00:57:24.472Z,80.04
2018-03-24T00:59:54.013Z,80.99
2018-03-24T01:02:23.236Z,81.45
2018-03-24T01:04:52.658Z,80.91
2018-03-24T01:07:22.309Z,81.60
2018-03-24T01:09:51.622Z,81.06
2018-03-24T01:12:20.802Z,81.17
2018-03-24T01:14:50.664Z,81.05
2018-03-24T01:17:19.837Z,81.03
2018-03-24T01:19:49.442Z,81.12
2018-03-24T01:22:19.334Z,81.17
2018-03-24T01:24:48.834Z,81.12
2018-03-24T01:27:18.343Z,80.82
2018-03-24T01:29:47.935Z,81.39
2018-03-24T01:32:17.171Z,80.80
2018-03-24T01:34:46.567Z,81.45
2018-03-24T01:37:16.244Z,81.70
2018-03-24T01:39:45.524Z,81.21
2018-03-24T01:42:15.301Z,81.29
2018-03-24T01:44:45.348Z,81.92
2018-03-24T01:47:15.076Z,81.78
2018-03-24T01:49:44.522Z,81.98
2018-03-24T01:52:14.285Z,82.30
2018-03-24T01:54:43.794Z,81.96
2018-03-24T01:57:13.097Z,81.94
2018-03-24T01:59:42.935Z,82.39
2018-03-24T02:02:13.332Z,82.56
2018-03-24T02:04:43.181Z,82.40
2018-03-24T02:07:13.390Z,82.17
2018-03-24T02:09:42.858Z,82.04
2018-03-24T02:12:14.369Z,81.98
2018-03-24T02:14:44.349Z,82.16
2018-03-24T02:17:15.239Z,82.11
2018-03-24T02:19:45.236Z,82.26
2018-03-24T02:22:15.065Z,82.52
2018-03-24T02:24:45.384Z,82.59
2018-03-24T02:27:15.039Z,81.07
2018-03-24T02:29:46.422Z,81.39
2018-03-24T02:32:15.973Z,82.37
2018-03-24T02:34:45.431Z,82.31
2018-03-24T02:37:15.117Z,82.15
2018-03-24T02:39:44.599Z,82.89
2018-03-24T02:42:13.951Z,83.19
2018-03-24T02:44:44.020Z,82.79
2018-03-24T02:47:13.455Z,85.34
2018-03-24T02:49:43.059Z,83.87
2018-03-24T02:52:12.477Z,84.25
2018-03-24T02:54:42.098Z,86.26
2018-03-24T02:57:11.656Z,88.26
2018-03-24T02:59:43.673Z,86.89
2018-03-24T03:02:14.664Z,89.67
2018-03-24T03:04:46.820Z,85.35
2018-03-24T03:07:16.253Z,85.09
2018-03-24T03:09:45.749Z,84.08
2018-03-24T03:12:15.411Z,83.65
2018-03-24T03:14:45.333Z,84.04
2018-03-24T03:17:14.708Z,84.05
2018-03-24T03:19:44.413Z,89.27
2018-03-24T03:22:13.922Z,88.75
2018-03-24T03:24:43.414Z,89.85
2018-03-24T03:27:13.083Z,87.52
2018-03-24T03:29:43.179Z,86.72
2018-03-24T03:32:12.877Z,86.31
2018-03-24T03:34:42.744Z,87.79
2018-03-24T03:37:12.338Z,88.00
2018-03-24T03:39:41.883Z,86.39
2018-03-24T03:42:11.698Z,86.69
2018-03-24T03:44:41.711Z,88.71
2018-03-24T03:47:11.078Z,90.95
2018-03-24T03:49:40.576Z,89.31
2018-03-24T03:52:10.140Z,87.99
2018-03-24T03:54:39.655Z,87.93
2018-03-24T03:57:08.981Z,88.32
2018-03-24T03:59:38.510Z,92.55
2018-03-24T04:02:08.179Z,89.40
2018-03-24T04:04:38.120Z,90.73
2018-03-24T04:07:07.896Z,85.96
2018-03-24T04:09:37.468Z,89.59
2018-03-24T04:12:07.011Z,90.54
2018-03-24T04:14:36.967Z,87.10
2018-03-24T04:17:06.431Z,85.72
2018-03-24T04:19:36.546Z,88.83
2018-03-24T04:22:05.920Z,92.55
2018-03-24T04:24:35.380Z,89.16
2018-03-24T04:27:05.367Z,86.02
2018-03-24T04:29:34.781Z,84.86
2018-03-24T04:32:04.337Z,90.33
2018-03-24T04:34:34.500Z,91.19
2018-03-24T04:37:03.817Z,88.64
2018-03-24T04:39:33.180Z,90.05
2018-03-24T04:42:03.019Z,90.85
2018-03-24T04:44:33.218Z,85.87
2018-03-24T04:47:02.726Z,84.92
2018-03-24T04:49:32.744Z,84.80
2018-03-24T04:52:02.168Z,84.62
2018-03-24T04:54:31.643Z,87.38
2018-03-24T04:57:01.532Z,87.35
2018-03-24T04:59:31.038Z,85.51
2018-03-24T05:02:00.399Z,84.98
2018-03-24T05:04:30.358Z,84.67
2018-03-24T05:06:59.915Z,84.96
2018-03-24T05:09:29.470Z,84.07
2018-03-24T05:12:01.365Z,89.34
2018-03-24T05:14:30.719Z,88.42
2018-03-24T05:16:59.980Z,86.06
2018-03-24T05:19:29.959Z,90.69
2018-03-24T05:21:59.682Z,89.92
2018-03-24T05:24:29.094Z,86.66
2018-03-24T05:26:58.773Z,86.19
2018-03-24T05:29:28.281Z,87.62
2018-03-24T05:31:57.662Z,85.92
2018-03-24T05:34:27.315Z,86.55
2018-03-24T05:36:56.966Z,87.58
2018-03-24T05:39:26.478Z,87.85
2018-03-24T05:41:56.225Z,87.64
2018-03-24T05:44:25.738Z,86.65
2018-03-24T05:46:55.102Z,89.37
2018-03-24T05:49:24.669Z,87.92
2018-03-24T05:51:54.508Z,89.05
2018-03-24T05:54:23.695Z,93.10
2018-03-24T05:56:53.094Z,88.60
2018-03-24T05:59:22.338Z,88.28
2018-03-24T06:01:52.227Z,87.79
2018-03-24T06:04:21.643Z,88.51
2018-03-24T06:06:51.238Z,88.16
2018-03-24T06:09:20.679Z,88.24
2018-03-24T06:11:50.368Z,88.89
2018-03-24T06:14:19.517Z,88.97
2018-03-24T06:16:48.949Z,88.83
2018-03-24T06:19:18.468Z,88.66
2018-03-24T06:21:48.003Z,89.74
2018-03-24T06:24:17.491Z,88.99
2018-03-24T06:26:47.148Z,88.81
2018-03-24T06:29:16.674Z,91.00
2018-03-24T06:31:46.223Z,90.43
2018-03-24T06:34:15.721Z,89.51
2018-03-24T06:36:45.552Z,91.06
2018-03-24T06:39:15.128Z,89.88
2018-03-24T06:41:44.576Z,93.59
2018-03-24T06:44:13.990Z,93.45
2018-03-24T06:46:45.885Z,92.87
2018-03-24T06:49:15.072Z,95.50
2018-03-24T06:51:44.363Z,95.79
2018-03-24T06:54:14.004Z,96.11
2018-03-24T06:56:44.838Z,94.67
2018-03-24T06:59:14.515Z,95.24
2018-03-24T07:01:44.088Z,96.09
2018-03-24T07:04:13.311Z,95.58
2018-03-24T07:06:43.043Z,95.76
2018-03-24T07:09:12.882Z,94.83
2018-03-24T07:11:46.052Z,94.48
2018-03-24T07:14:15.576Z,93.66
2018-03-24T07:16:45.437Z,92.33
2018-03-24T07:19:14.711Z,92.20
2018-03-24T07:21:44.014Z,91.81
2018-03-24T07:24:13.746Z,91.15
2018-03-24T07:26:43.537Z,89.89
2018-03-24T07:29:13.598Z,89.53
2018-03-24T07:31:43.302Z,89.62
2018-03-24T07:34:12.644Z,89.54
2018-03-24T07:36:42.567Z,85.61
2018-03-24T07:39:12.436Z,85.84
2018-03-24T07:41:42.104Z,86.28
2018-03-24T07:44:11.573Z,85.52
2018-03-24T07:46:41.760Z,82.58
2018-03-24T07:49:11.469Z,76.97
2018-03-24T07:51:40.869Z,77.82
2018-03-24T07:54:10.708Z,76.70
2018-03-24T07:56:39.993Z,73.94
2018-03-24T07:59:09.399Z,74.13
2018-03-24T08:01:39.145Z,72.97
2018-03-24T08:04:08.426Z,73.69
2018-03-24T08:06:37.620Z,72.83
2018-03-24T08:09:07.200Z,78.19
2018-03-24T08:11:37.736Z,78.25
2018-03-24T08:14:07.225Z,75.19
2018-03-24T08:16:36.972Z,70.87
2018-03-24T08:19:06.319Z,69.55
2018-03-24T08:21:35.640Z,67.81
2018-03-24T08:24:05.280Z,69.12
2018-03-24T08:26:34.527Z,73.79
2018-03-24T08:29:03.797Z,77.89
2018-03-24T08:31:34.544Z,76.03
2018-03-24T08:34:04.086Z,72.30
2018-03-24T08:36:33.467Z,72.41
2018-03-24T08:39:03.311Z,68.95
2018-03-24T08:41:33.609Z,68.35
2018-03-24T08:44:03.415Z,73.46
2018-03-24T08:46:33.392Z,73.01
2018-03-24T08:49:02.599Z,71.53
2018-03-24T08:51:31.900Z,71.80
2018-03-24T08:54:01.665Z,71.95
2018-03-24T08:56:31.612Z,70.51
2018-03-24T08:59:00.861Z,67.62
2018-03-24T09:01:30.890Z,68.54
2018-03-24T09:04:00.458Z,67.13
2018-03-24T09:06:29.703Z,66.79
2018-03-24T09:08:59.408Z,67.74
2018-03-24T09:11:28.602Z,67.90
2018-03-24T09:13:58.219Z,69.23
2018-03-24T09:16:27.781Z,68.44
2018-03-24T09:18:57.131Z,68.95
2018-03-24T09:21:27.339Z,72.48
2018-03-24T09:23:56.568Z,74.09
2018-03-24T09:26:25.927Z,73.50
2018-03-24T09:28:55.714Z,70.19
2018-03-24T09:31:24.912Z,68.62
2018-03-24T09:33:54.129Z,68.97
2018-03-24T09:36:23.713Z,68.26
2018-03-24T09:38:52.972Z,69.41
2018-03-24T09:41:23.107Z,65.69
2018-03-24T09:43:52.435Z,64.66
2018-03-24T09:46:22.253Z,62.08
2018-03-24T09:48:52.950Z,62.61
2018-03-24T09:51:22.379Z,59.36
2018-03-24T09:53:51.641Z,58.33
2018-03-24T09:56:21.073Z,58.64
2018-03-24T09:58:50.297Z,57.36
2018-03-24T10:01:20.533Z,56.47
2018-03-24T10:03:50.162Z,56.46
2018-03-24T10:06:19.353Z,57.49
2018-03-24T10:08:48.580Z,58.40
2018-03-24T10:11:17.790Z,54.53
2018-03-24T10:13:47.138Z,53.23
2018-03-24T10:16:20.790Z,54.15
2018-03-24T10:18:50.192Z,54.03
2018-03-24T10:21:19.726Z,54.10
2018-03-24T10:23:49.357Z,54.43
2018-03-24T10:26:18.653Z,52.38
2018-03-24T10:28:47.846Z,52.99
2018-03-24T10:31:17.386Z,53.04
2018-03-24T10:33:50.832Z,53.58
2018-03-24T10:36:20.306Z,54.46
2018-03-24T10:38:49.542Z,54.11
2018-03-24T10:41:18.756Z,53.70
2018-03-24T10:43:48.462Z,54.59
2018-03-24T10:46:18.035Z,52.81
2018-03-24T10:48:47.662Z,51.98
2018-03-24T10:51:17.131Z,53.50
2018-03-24T10:53:46.337Z,54.66
2018-03-24T10:56:15.975Z,52.70
2018-03-24T10:58:45.546Z,53.20
2018-03-24T11:01:15.163Z,54.96
2018-03-24T11:03:44.360Z,54.92
2018-03-24T11:06:14.279Z,54.18
2018-03-24T11:08:43.428Z,54.13
2018-03-24T11:11:12.642Z,54.27
2018-03-24T11:13:42.287Z,55.02
2018-03-24T11:16:11.700Z,52.74
2018-03-24T11:18:40.880Z,51.77
2018-03-24T11:21:10.459Z,53.77
2018-03-24T11:23:39.612Z,55.42
2018-03-24T11:26:08.794Z,52.07
2018-03-24T11:28:38.570Z,48.09
2018-03-24T11:31:07.792Z,50.71
2018-03-24T11:33:36.962Z,49.96
2018-03-24T11:36:06.432Z,48.87
2018-03-24T11:38:35.647Z,47.63
2018-03-24T11:41:04.904Z,47.53
2018-03-24T11:43:34.113Z,47.72
2018-03-24T11:46:03.627Z,46.48
2018-03-24T11:48:32.843Z,47.34
2018-03-24T11:51:02.034Z,46.45
2018-03-24T11:53:40.341Z,46.89
2018-03-24T11:56:09.869Z,46.70
2018-03-24T11:58:39.910Z,46.01
2018-03-24T12:01:09.983Z,46.06
2018-03-24T12:03:39.642Z,46.89
2018-03-24T12:06:09.286Z,45.97
2018-03-24T12:08:38.550Z,45.76
2018-03-24T12:11:08.619Z,47.13
2018-03-24T12:13:38.126Z,47.31
2018-03-24T12:16:07.898Z,44.41
2018-03-24T12:18:37.266Z,46.06
2018-03-24T12:21:06.765Z,46.39
2018-03-24T12:23:36.397Z,43.96
2018-03-24T12:26:05.987Z,45.66
2018-03-24T12:28:35.298Z,43.93
2018-03-24T12:31:04.791Z,46.31
2018-03-24T12:33:33.996Z,45.24
2018-03-24T12:36:04.421Z,47.05
2018-03-24T12:38:33.791Z,47.18
2018-03-24T12:41:03.404Z,47.01
2018-03-24T12:43:32.936Z,47.62
2018-03-24T12:46:02.903Z,46.80
2018-03-24T12:48:32.545Z,47.69
2018-03-24T12:51:02.117Z,48.47
2018-03-24T12:53:31.355Z,48.42
2018-03-24T12:56:00.764Z,50.43
2018-03-24T12:58:29.978Z,49.18
2018-03-24T13:00:59.202Z,48.27
2018-03-24T13:03:28.726Z,47.45
2018-03-24T13:05:58.134Z,46.21
2018-03-24T13:08:27.381Z,45.87
2018-03-24T13:10:57.046Z,46.67
2018-03-24T13:13:26.480Z,45.69
2018-03-24T13:15:56.386Z,46.41
2018-03-24T13:18:25.781Z,47.95
2018-03-24T13:20:54.986Z,47.30
2018-03-24T13:23:24.560Z,45.71
2018-03-24T13:25:54.071Z,47.60
2018-03-24T13:28:23.580Z,50.04
2018-03-24T13:30:52.802Z,47.62
2018-03-24T13:33:22.330Z,48.85
2018-03-24T13:35:51.549Z,48.11
2018-03-24T13:38:20.950Z,48.56
2018-03-24T13:40:50.430Z,47.79
2018-03-24T13:43:19.687Z,48.19
2018-03-24T13:45:49.037Z,48.12
2018-03-24T13:48:18.536Z,49.06
2018-03-24T13:50:48.036Z,47.73
2018-03-24T13:53:17.384Z,49.78
2018-03-24T13:55:47.378Z,50.38
2018-03-24T13:58:16.605Z,49.72
2018-03-24T14:00:45.807Z,49.94
2018-03-24T14:03:15.681Z,49.66
2018-03-24T14:05:44.959Z,49.88
2018-03-24T14:08:14.482Z,49.17
2018-03-24T14:10:43.989Z,49.51
2018-03-24T14:13:13.722Z,48.82
2018-03-24T14:15:43.190Z,49.67
2018-03-24T14:18:12.712Z,49.81
2018-03-24T14:20:41.957Z,48.89
2018-03-24T14:23:11.577Z,49.13
2018-03-24T14:25:41.271Z,49.68
2018-03-24T14:28:10.528Z,49.59
2018-03-24T14:30:39.744Z,51.77
2018-03-24T14:33:09.292Z,51.24
2018-03-24T14:35:38.511Z,52.73
2018-03-24T14:38:07.787Z,52.29
2018-03-24T14:40:37.331Z,51.94
2018-03-24T14:43:06.621Z,51.34
2018-03-24T14:45:36.214Z,52.85
2018-03-24T14:48:05.845Z,54.13
2018-03-24T14:50:35.215Z,53.21
2018-03-24T14:53:04.836Z,53.01
2018-03-24T14:55:34.075Z,53.50
2018-03-24T14:58:03.464Z,53.71
2018-03-24T15:00:33.450Z,53.16
2018-03-24T15:03:02.693Z,53.26
2018-03-24T15:05:31.927Z,53.22
2018-03-24T15:08:01.703Z,55.06
2018-03-24T15:10:31.219Z,55.81
2018-03-24T15:13:00.468Z,56.50
2018-03-24T15:15:30.733Z,56.88
2018-03-24T15:18:00.563Z,56.08
2018-03-24T15:20:29.738Z,56.51
2018-03-24T15:22:59.343Z,57.30
2018-03-24T15:25:28.885Z,56.28
2018-03-24T15:27:58.516Z,56.57
2018-03-24T15:32:43.879Z,56.06
2018-03-24T15:35:28.733Z,57.16
2018-03-24T15:37:58.275Z,57.42
2018-03-24T15:40:27.530Z,57.65
2018-03-24T15:42:56.874Z,57.86
2018-03-24T15:45:26.574Z,57.87
2018-03-24T15:47:55.865Z,58.27
2018-03-24T15:50:25.087Z,57.68
2018-03-24T15:52:55.607Z,58.19
2018-03-24T15:55:25.078Z,58.62
2018-03-24T15:57:54.570Z,58.86
2018-03-24T16:00:25.350Z,59.56
2018-03-24T16:02:54.556Z,59.39
2018-03-24T16:05:23.707Z,58.96
2018-03-24T16:07:53.379Z,58.39
2018-03-24T16:10:22.628Z,58.63
2018-03-24T16:12:51.875Z,59.16
2018-03-24T16:15:21.493Z,59.89
2018-03-24T16:17:51.089Z,59.89
2018-03-24T16:20:20.311Z,60.66
2018-03-24T16:22:50.172Z,60.59
2018-03-24T16:25:19.578Z,60.61
2018-03-24T16:27:49.055Z,61.20
2018-03-24T16:30:18.560Z,60.51
2018-03-24T16:32:48.256Z,60.49
2018-03-24T16:35:18.238Z,61.13
2018-03-24T16:37:47.924Z,60.89
2018-03-24T16:40:17.432Z,60.92
2018-03-24T16:42:47.014Z,61.52
2018-03-24T16:45:17.527Z,61.02
2018-03-24T16:47:46.775Z,61.48
2018-03-24T16:50:16.468Z,62.59
2018-03-24T16:52:46.349Z,61.52
2018-03-24T16:55:15.832Z,62.42
2018-03-24T16:57:46.283Z,62.31
2018-03-24T17:00:16.501Z,62.39
2018-03-24T17:02:47.696Z,62.61
2018-03-24T17:05:16.920Z,63.34
2018-03-24T17:07:46.630Z,63.27
2018-03-24T17:10:15.882Z,63.51
2018-03-24T17:12:45.910Z,62.89
2018-03-24T17:15:16.023Z,63.12
2018-03-24T17:17:45.433Z,63.51
2018-03-24T17:20:14.819Z,63.96
2018-03-24T17:22:44.657Z,63.54
2018-03-24T17:25:14.124Z,64.87
2018-03-24T17:27:43.339Z,64.61
2018-03-24T17:30:13.066Z,65.50
2018-03-24T17:32:42.385Z,65.09
2018-03-24T17:35:17.224Z,65.63
2018-03-24T17:37:50.342Z,65.66
2018-03-24T17:40:21.331Z,65.18
2018-03-24T17:42:50.551Z,66.07
2018-03-24T17:45:23.364Z,65.87
2018-03-24T17:47:53.090Z,66.28
2018-03-24T17:50:22.950Z,66.89
2018-03-24T17:52:52.204Z,65.55
2018-03-24T17:55:21.489Z,65.33
2018-03-24T17:57:51.115Z,65.96
2018-03-24T18:00:20.326Z,66.00
2018-03-24T18:02:50.432Z,65.42
2018-03-24T18:05:20.568Z,65.22
2018-03-24T18:07:50.539Z,65.42
2018-03-24T18:10:19.812Z,65.26
2018-03-24T18:12:49.232Z,65.76
2018-03-24T18:15:18.455Z,65.88
2018-03-24T18:17:47.899Z,65.86
2018-03-24T18:20:18.721Z,65.44
2018-03-24T18:22:47.936Z,65.50
2018-03-24T18:25:17.201Z,66.14
2018-03-24T18:27:46.413Z,66.79
2018-03-24T18:30:16.290Z,66.88
2018-03-24T18:32:45.580Z,67.72
2018-03-24T18:35:14.780Z,67.49
2018-03-24T18:37:44.029Z,68.14
2018-03-24T18:40:13.429Z,68.46
2018-03-24T18:42:42.885Z,68.91
2018-03-24T18:45:13.103Z,69.30
2018-03-24T18:47:42.623Z,68.00
2018-03-24T18:50:12.048Z,69.56
2018-03-24T18:52:41.284Z,69.94
2018-03-24T18:55:10.538Z,69.58
2018-03-24T18:57:39.927Z,68.93
2018-03-24T19:00:09.874Z,68.34
2018-03-24T19:02:39.133Z,68.50
2018-03-24T19:05:09.416Z,68.45
2018-03-24T19:07:38.739Z,68.59
2018-03-24T19:10:08.485Z,68.81
2018-03-24T19:12:38.190Z,71.57
2018-03-24T19:15:08.721Z,74.28
2018-03-24T19:17:37.907Z,73.61
2018-03-24T19:20:08.289Z,71.91
2018-03-24T19:22:37.607Z,70.99
2018-03-24T19:25:07.447Z,70.28
2018-03-24T19:27:36.727Z,72.44
2018-03-24T19:30:06.803Z,71.00
2018-03-24T19:32:36.194Z,72.58
2018-03-24T19:35:06.123Z,74.45
2018-03-24T19:37:35.499Z,76.72
2018-03-24T19:40:05.386Z,75.02
2018-03-24T19:42:35.806Z,72.97
2018-03-24T19:47:34.217Z,74.32
2018-03-24T19:50:03.497Z,73.64
2018-03-24T19:52:33.291Z,73.86
2018-03-24T19:55:03.321Z,72.98
2018-03-24T19:57:33.069Z,71.93
2018-03-24T20:00:02.412Z,72.32
2018-03-24T20:02:32.112Z,72.71
2018-03-24T20:05:01.623Z,75.89
2018-03-24T20:07:30.912Z,78.25
2018-03-24T20:10:00.639Z,76.32
2018-03-24T20:12:29.952Z,78.32
2018-03-24T20:14:59.288Z,77.73
2018-03-24T20:17:28.940Z,78.80
2018-03-24T20:19:58.537Z,75.50
2018-03-24T20:22:27.740Z,78.04
2018-03-24T20:24:57.252Z,79.44
2018-03-24T20:27:26.470Z,76.53
2018-03-24T20:29:56.174Z,81.52
2018-03-24T20:32:25.799Z,80.92
2018-03-24T20:34:55.486Z,80.25
2018-03-24T20:37:24.957Z,81.90
2018-03-24T20:39:54.822Z,79.65
2018-03-24T20:42:24.378Z,82.45
2018-03-24T20:44:54.209Z,82.55
2018-03-24T20:47:23.895Z,83.90
2018-03-24T20:49:53.229Z,83.77
2018-03-24T20:52:22.608Z,83.91
2018-03-24T20:54:52.148Z,80.23
2018-03-24T20:57:21.336Z,79.39
2018-03-24T20:59:50.581Z,81.52
2018-03-24T21:02:20.086Z,82.80
2018-03-24T21:04:49.420Z,79.22
2018-03-24T21:07:18.763Z,78.39
2018-03-24T21:09:48.278Z,82.52
2018-03-24T21:12:18.164Z,79.89
2018-03-24T21:14:47.432Z,78.09
2018-03-24T21:17:16.994Z,77.43
2018-03-24T21:19:46.560Z,76.98
2018-03-24T21:22:16.038Z,76.87
2018-03-24T21:24:45.315Z,76.40
2018-03-24T21:27:14.855Z,76.51
2018-03-24T21:29:44.292Z,81.77
2018-03-24T21:32:13.988Z,81.92
2018-03-24T21:34:43.153Z,81.53
2018-03-24T21:37:12.394Z,81.71
2018-03-24T21:39:41.801Z,81.63
2018-03-24T21:42:11.516Z,80.54
2018-03-24T21:44:40.838Z,81.78
2018-03-24T21:47:11.610Z,82.95
2018-03-24T21:49:41.280Z,80.42
2018-03-24T21:52:10.559Z,77.72
2018-03-24T21:54:39.833Z,82.86
2018-03-24T21:57:09.392Z,84.17
2018-03-24T21:59:38.657Z,84.93
2018-03-24T22:02:08.082Z,87.67
2018-03-24T22:04:37.314Z,88.34
2018-03-24T22:07:06.908Z,88.32
2018-03-24T22:09:36.365Z,85.59
2018-03-24T22:12:05.704Z,83.46
2018-03-24T22:14:35.014Z,83.00
2018-03-24T22:17:04.602Z,87.72
2018-03-24T22:19:33.941Z,81.15
2018-03-24T22:22:03.330Z,85.74
2018-03-24T22:24:32.647Z,80.79
2018-03-24T22:27:01.941Z,80.00
2018-03-24T22:29:31.415Z,79.21
2018-03-24T22:32:00.912Z,78.58
2018-03-24T22:34:30.224Z,81.14
2018-03-24T22:36:59.537Z,84.65
2018-03-24T22:39:29.083Z,80.23
2018-03-24T22:41:58.523Z,79.05
2018-03-24T22:44:27.843Z,81.46
2018-03-24T22:46:57.310Z,78.91
2018-03-24T22:49:26.718Z,79.57
2018-03-24T22:51:56.139Z,82.05
2018-03-24T22:54:26.235Z,79.39
2018-03-24T22:56:55.667Z,78.94
2018-03-24T22:59:24.877Z,78.47
2018-03-24T23:01:56.106Z,78.33
2018-03-24T23:04:25.547Z,78.69
2018-03-24T23:06:54.925Z,80.25
2018-03-24T23:09:24.606Z,78.98
2018-03-24T23:11:54.142Z,78.43
2018-03-24T23:14:23.464Z,78.08
2018-03-24T23:16:52.965Z,83.62
2018-03-24T23:19:22.195Z,81.49
2018-03-24T23:21:51.425Z,79.54
2018-03-24T23:24:20.915Z,78.91
2018-03-24T23:26:50.197Z,80.99
2018-03-24T23:29:19.503Z,79.08
2018-03-24T23:31:50.018Z,78.71
2018-03-24T23:34:19.855Z,79.43
2018-03-24T23:36:50.408Z,83.76
2018-03-24T23:39:23.596Z,83.19
2018-03-24T23:41:57.429Z,82.03
2018-03-24T23:44:27.224Z,81.93
2018-03-24T23:46:56.658Z,79.77
2018-03-24T23:49:25.904Z,78.84
2018-03-24T23:51:55.733Z,79.22
2018-03-24T23:54:25.294Z,79.33
2018-03-24T23:56:54.491Z,79.26
2018-03-24T23:59:24.109Z,78.68
